Terminal Aerodrome Forecast
Issued by NWS Missoula, MT

Current Version | Previous Version | Text Only | Print | Product List | Glossary On
Versions: 1 2 3 4 5 6 7 8 9 10 11 12 13 14
000
FTUS45 KMSO 032321
TAFMSO
TAF
KMSO 032321Z 0400/0424 VRB05KT P6SM VCSH BKN050 OVC080
     FM040900 VRB06KT P6SM OVC050=

USA.gov is the U.S. government's official web portal to all federal, state and local government web resources and services.